createdAt,value
2023-03-29T00:01:43.007Z,8.31
2023-03-29T00:03:47.204Z,8.30
2023-03-29T00:05:51.073Z,8.29
2023-03-29T00:07:54.376Z,8.30
2023-03-29T00:09:57.988Z,8.32
2023-03-29T00:12:01.110Z,8.30
2023-03-29T00:14:04.290Z,8.33
2023-03-29T00:16:07.624Z,8.33
2023-03-29T00:18:11.796Z,8.31
2023-03-29T00:20:14.607Z,8.30
2023-03-29T00:22:17.555Z,8.29
2023-03-29T00:24:21.105Z,8.31
2023-03-29T00:26:24.376Z,8.30
2023-03-29T00:28:27.187Z,8.31
2023-03-29T00:30:30.163Z,8.33
2023-03-29T00:32:34.288Z,8.34
2023-03-29T00:34:38.614Z,8.34
2023-03-29T00:36:41.462Z,8.34
2023-03-29T00:38:45.358Z,8.35
2023-03-29T00:40:48.403Z,8.36
2023-03-29T00:42:51.275Z,8.34
2023-03-29T00:45:03.716Z,8.34
2023-03-29T00:47:06.739Z,8.32
2023-03-29T00:49:13.883Z,8.34
2023-03-29T00:51:21.567Z,8.33
2023-03-29T00:53:32.302Z,8.31
2023-03-29T00:55:38.404Z,8.27
2023-03-29T00:57:43.312Z,8.30
2023-03-29T00:59:48.129Z,8.22
2023-03-29T01:01:54.397Z,8.19
2023-03-29T01:04:04.154Z,8.21
2023-03-29T01:06:09.612Z,8.23
2023-03-29T01:08:18.243Z,8.24
2023-03-29T01:10:27.423Z,8.25
2023-03-29T01:12:35.818Z,8.22
2023-03-29T01:14:43.839Z,8.20
2023-03-29T01:16:47.658Z,8.20
2023-03-29T01:18:52.187Z,8.23
2023-03-29T01:21:15.326Z,8.22
2023-03-29T01:23:33.348Z,8.19
2023-03-29T01:25:43.321Z,8.19
2023-03-29T01:27:54.455Z,8.24
2023-03-29T01:30:04.069Z,8.24
2023-03-29T01:32:12.517Z,8.25
2023-03-29T01:34:22.538Z,8.23
2023-03-29T01:36:28.642Z,8.16
2023-03-29T01:38:35.663Z,8.14
2023-03-29T01:40:38.670Z,8.13
2023-03-29T01:42:47.719Z,8.15
2023-03-29T01:45:00.344Z,8.13
2023-03-29T01:47:12.754Z,8.07
2023-03-29T01:49:23.529Z,8.08
2023-03-29T01:51:31.638Z,8.08
2023-03-29T01:53:39.567Z,8.08
2023-03-29T01:55:48.299Z,8.09
2023-03-29T01:57:54.036Z,8.10
2023-03-29T01:59:59.781Z,8.07
2023-03-29T02:02:06.076Z,8.08
2023-03-29T02:04:14.049Z,8.14
2023-03-29T02:06:20.532Z,8.08
2023-03-29T02:08:23.577Z,8.05
2023-03-29T02:10:27.827Z,8.11
2023-03-29T02:12:31.027Z,8.08
2023-03-29T02:14:34.039Z,8.04
2023-03-29T02:16:38.879Z,8.07
2023-03-29T02:18:42.706Z,7.93
2023-03-29T02:20:48.476Z,7.93
2023-03-29T02:22:58.656Z,8.02
2023-03-29T02:25:04.761Z,8.05
2023-03-29T02:27:08.019Z,8.10
2023-03-29T02:29:11.676Z,8.11
2023-03-29T02:31:21.202Z,8.11
2023-03-29T02:33:31.476Z,8.14
2023-03-29T02:35:38.531Z,8.09
2023-03-29T02:37:45.170Z,8.10
2023-03-29T02:39:50.020Z,8.13
2023-03-29T02:41:54.564Z,8.10
2023-03-29T02:44:01.389Z,8.09
2023-03-29T02:46:06.307Z,8.06
2023-03-29T02:48:11.449Z,7.92
2023-03-29T02:50:16.516Z,7.91
2023-03-29T02:52:24.812Z,8.00
2023-03-29T02:54:31.554Z,8.04
2023-03-29T02:56:43.214Z,8.10
2023-03-29T02:58:46.187Z,8.10
2023-03-29T03:00:51.832Z,8.11
2023-03-29T03:02:55.179Z,8.12
2023-03-29T03:04:59.155Z,8.13
2023-03-29T03:07:05.102Z,8.12
2023-03-29T03:09:10.367Z,8.13
2023-03-29T03:11:16.901Z,8.16
2023-03-29T03:13:19.707Z,8.17
2023-03-29T03:15:22.617Z,8.20
2023-03-29T03:17:25.646Z,8.12
2023-03-29T03:19:28.659Z,8.10
2023-03-29T03:21:31.500Z,8.14
2023-03-29T03:23:37.179Z,8.15
2023-03-29T03:25:40.016Z,8.15
2023-03-29T03:27:42.829Z,8.11
2023-03-29T03:29:47.140Z,8.08
2023-03-29T03:32:08.628Z,8.03
2023-03-29T03:34:26.288Z,8.04
2023-03-29T03:36:34.625Z,8.10
2023-03-29T03:38:39.696Z,8.07
2023-03-29T03:40:42.528Z,8.02
2023-03-29T03:42:45.467Z,7.98
2023-03-29T03:44:48.744Z,7.90
2023-03-29T03:47:10.166Z,7.79
2023-03-29T03:49:14.400Z,7.83
2023-03-29T03:51:18.983Z,7.90
2023-03-29T03:53:26.081Z,7.93
2023-03-29T03:55:50.169Z,7.91
2023-03-29T03:57:58.141Z,7.80
2023-03-29T04:00:01.115Z,7.77
2023-03-29T04:02:15.588Z,7.80
2023-03-29T04:04:20.551Z,7.78
2023-03-29T04:06:43.778Z,7.65
2023-03-29T04:09:15.789Z,7.72
2023-03-29T04:11:25.606Z,7.67
2023-03-29T04:13:29.175Z,7.68
2023-03-29T04:15:57.693Z,7.68
2023-03-29T04:18:02.843Z,7.72
2023-03-29T04:20:11.876Z,7.72
2023-03-29T04:22:16.315Z,7.70
2023-03-29T04:24:19.421Z,7.69
2023-03-29T04:26:41.212Z,7.69
2023-03-29T04:28:51.329Z,7.67
2023-03-29T04:31:06.624Z,7.68
2023-03-29T04:33:21.616Z,7.69
2023-03-29T04:35:31.533Z,7.74
2023-03-29T04:37:35.057Z,7.72
2023-03-29T04:39:38.751Z,7.69
2023-03-29T04:41:43.709Z,7.69
2023-03-29T04:43:55.964Z,7.65
2023-03-29T04:46:03.473Z,7.63
2023-03-29T04:48:26.817Z,7.60
2023-03-29T04:50:29.776Z,7.65
2023-03-29T04:52:33.405Z,7.66
2023-03-29T04:54:38.271Z,7.71
2023-03-29T04:56:52.526Z,7.66
2023-03-29T04:59:24.623Z,7.60
2023-03-29T05:01:27.565Z,7.61
2023-03-29T05:03:34.292Z,7.63
2023-03-29T05:05:45.776Z,7.61
2023-03-29T05:07:48.569Z,7.61
2023-03-29T05:09:55.576Z,7.60
2023-03-29T05:11:59.774Z,7.62
2023-03-29T05:14:07.292Z,7.67
2023-03-29T05:16:32.848Z,7.73
2023-03-29T05:18:36.386Z,7.62
2023-03-29T05:20:40.475Z,7.71
2023-03-29T05:22:43.538Z,7.77
2023-03-29T05:24:51.508Z,7.74
2023-03-29T05:26:55.333Z,7.66
2023-03-29T05:29:00.855Z,7.69
2023-03-29T05:31:06.164Z,7.65
2023-03-29T05:33:12.247Z,7.63
2023-03-29T05:35:16.038Z,7.62
2023-03-29T05:37:20.182Z,7.47
2023-03-29T05:39:28.333Z,7.47
2023-03-29T05:41:31.370Z,7.46
2023-03-29T05:43:53.293Z,7.50
2023-03-29T05:46:01.785Z,7.52
2023-03-29T05:48:07.806Z,7.54
2023-03-29T05:50:11.535Z,7.57
2023-03-29T05:52:15.199Z,7.60
2023-03-29T05:54:18.062Z,7.56
2023-03-29T05:56:20.948Z,7.47
2023-03-29T05:58:26.355Z,7.51
2023-03-29T06:00:31.783Z,7.44
2023-03-29T06:02:49.529Z,7.49
2023-03-29T06:04:53.869Z,7.51
2023-03-29T06:07:02.043Z,7.58
2023-03-29T06:09:06.830Z,7.65
2023-03-29T06:11:14.324Z,7.69
2023-03-29T06:13:37.116Z,7.66
2023-03-29T06:15:40.213Z,7.65
2023-03-29T06:17:47.101Z,7.66
2023-03-29T06:19:52.973Z,7.75
2023-03-29T06:21:58.854Z,7.80
2023-03-29T06:24:04.105Z,7.86
2023-03-29T06:26:13.794Z,7.88
2023-03-29T06:28:17.606Z,7.96
2023-03-29T06:30:21.325Z,8.00
2023-03-29T06:32:28.341Z,8.04
2023-03-29T06:34:44.563Z,8.06
2023-03-29T06:37:09.137Z,8.12
2023-03-29T06:39:11.986Z,8.17
2023-03-29T06:41:30.501Z,8.20
2023-03-29T06:43:42.533Z,8.21
2023-03-29T06:45:50.918Z,8.27
2023-03-29T06:48:02.060Z,8.31
2023-03-29T06:50:07.027Z,8.33
2023-03-29T06:52:23.609Z,8.34
2023-03-29T06:54:27.035Z,8.24
2023-03-29T06:56:36.536Z,8.21
2023-03-29T06:58:42.950Z,8.30
2023-03-29T07:01:21.673Z,8.26
2023-03-29T07:03:35.194Z,8.22
2023-03-29T07:05:40.783Z,8.31
2023-03-29T07:07:56.518Z,8.47
2023-03-29T07:10:12.806Z,8.48
2023-03-29T07:12:51.476Z,8.48
2023-03-29T07:14:54.385Z,8.56
2023-03-29T07:16:59.373Z,8.59
2023-03-29T07:19:06.378Z,8.67
2023-03-29T07:21:37.319Z,8.77
2023-03-29T07:23:42.568Z,8.83
2023-03-29T07:25:47.248Z,8.91
2023-03-29T07:27:50.729Z,9.00
2023-03-29T07:29:53.685Z,9.03
2023-03-29T07:31:57.667Z,9.11
2023-03-29T07:34:27.070Z,9.12
2023-03-29T07:36:30.283Z,9.17
2023-03-29T07:38:33.265Z,9.25
2023-03-29T07:40:47.051Z,9.26
2023-03-29T07:43:10.978Z,9.25
2023-03-29T07:45:16.425Z,9.22
2023-03-29T07:47:32.143Z,9.14
2023-03-29T07:49:35.218Z,9.21
2023-03-29T07:51:38.131Z,9.31
2023-03-29T07:53:46.579Z,9.37
2023-03-29T07:56:20.444Z,9.46
2023-03-29T07:58:27.513Z,9.51
2023-03-29T08:00:30.413Z,9.59
2023-03-29T08:02:53.656Z,9.61
2023-03-29T08:04:56.967Z,9.65
2023-03-29T08:07:19.805Z,9.70
2023-03-29T08:09:43.361Z,9.66
2023-03-29T08:11:47.699Z,9.62
2023-03-29T08:13:56.238Z,9.65
2023-03-29T08:15:59.097Z,9.76
2023-03-29T08:18:14.078Z,9.81
2023-03-29T08:20:17.585Z,9.92
2023-03-29T08:22:23.010Z,9.98
2023-03-29T08:24:44.567Z,10.04
2023-03-29T08:26:49.090Z,10.05
2023-03-29T08:28:54.897Z,10.07
2023-03-29T08:30:59.957Z,10.09
2023-03-29T08:33:02.951Z,10.07
2023-03-29T08:35:09.714Z,10.08
2023-03-29T08:37:19.653Z,10.17
2023-03-29T08:39:24.755Z,10.21
2023-03-29T08:41:57.290Z,10.29
2023-03-29T08:44:35.179Z,10.37
2023-03-29T08:46:48.596Z,10.41
2023-03-29T08:49:10.395Z,10.45
2023-03-29T08:51:21.441Z,10.54
2023-03-29T08:53:30.639Z,10.51
2023-03-29T08:55:49.995Z,10.46
2023-03-29T08:58:16.990Z,10.52
2023-03-29T09:00:25.572Z,10.52
2023-03-29T09:02:32.730Z,10.49
2023-03-29T09:04:42.451Z,10.41
2023-03-29T09:07:05.035Z,10.43
2023-03-29T09:09:18.553Z,10.42
2023-03-29T09:11:49.944Z,10.51
2023-03-29T09:14:05.047Z,10.46
2023-03-29T09:16:19.198Z,10.51
2023-03-29T09:18:33.801Z,10.57
2023-03-29T09:20:44.932Z,10.60
2023-03-29T09:22:57.676Z,10.76
2023-03-29T09:25:12.968Z,10.87
2023-03-29T09:27:24.330Z,10.93
2023-03-29T09:29:46.468Z,10.94
2023-03-29T09:31:51.120Z,11.08
2023-03-29T09:33:59.646Z,11.25
2023-03-29T09:36:19.010Z,11.34
2023-03-29T09:38:24.046Z,11.47
2023-03-29T09:40:32.346Z,11.61
2023-03-29T09:42:50.437Z,11.73
2023-03-29T09:44:58.370Z,11.84
2023-03-29T09:47:18.579Z,11.86
2023-03-29T09:49:25.924Z,11.91
2023-03-29T09:51:31.932Z,11.94
2023-03-29T09:53:34.843Z,11.97
2023-03-29T09:55:51.904Z,12.01
2023-03-29T09:58:19.755Z,12.19
2023-03-29T10:00:27.903Z,12.40
2023-03-29T10:02:32.678Z,12.43
2023-03-29T10:04:35.467Z,12.56
2023-03-29T10:06:43.203Z,12.62
2023-03-29T10:08:51.705Z,12.63
2023-03-29T10:10:57.421Z,12.71
2023-03-29T10:13:04.116Z,12.60
2023-03-29T10:15:16.745Z,12.65
2023-03-29T10:17:32.687Z,12.74
2023-03-29T10:19:36.944Z,12.91
2023-03-29T10:21:42.156Z,13.06
2023-03-29T10:23:45.020Z,13.21
2023-03-29T10:25:48.096Z,13.32
2023-03-29T10:27:50.971Z,13.65
2023-03-29T10:29:55.323Z,13.83
2023-03-29T10:31:58.176Z,13.90
2023-03-29T10:34:06.230Z,14.02
2023-03-29T10:36:12.956Z,13.98
2023-03-29T10:38:18.625Z,14.00
2023-03-29T10:40:26.643Z,14.16
2023-03-29T10:42:29.588Z,14.23
2023-03-29T10:44:35.416Z,14.36
2023-03-29T10:46:43.885Z,14.41
2023-03-29T10:48:49.064Z,14.30
2023-03-29T10:50:53.344Z,14.26
2023-03-29T10:52:56.391Z,14.35
2023-03-29T10:55:00.063Z,14.46
2023-03-29T10:57:08.595Z,14.64
2023-03-29T10:59:32.072Z,14.85
2023-03-29T11:01:45.204Z,15.08
2023-03-29T11:04:09.840Z,15.29
2023-03-29T11:06:21.529Z,15.56
2023-03-29T11:08:52.580Z,15.65
2023-03-29T11:11:05.969Z,15.76
2023-03-29T11:13:17.278Z,15.86
2023-03-29T11:15:34.281Z,15.98
2023-03-29T11:17:52.692Z,16.16
2023-03-29T11:20:05.882Z,16.13
2023-03-29T11:22:16.628Z,16.11
2023-03-29T11:24:43.718Z,16.27
2023-03-29T11:26:59.979Z,16.33
2023-03-29T11:29:09.210Z,16.29
2023-03-29T11:31:23.293Z,16.33
2023-03-29T11:33:38.616Z,16.18
2023-03-29T11:35:49.158Z,16.35
2023-03-29T11:38:00.814Z,16.61
2023-03-29T11:40:22.798Z,16.75
2023-03-29T11:42:32.031Z,16.77
2023-03-29T11:44:36.970Z,16.99
2023-03-29T11:46:43.475Z,17.04
2023-03-29T11:48:53.168Z,16.95
2023-03-29T11:51:00.777Z,16.63
2023-03-29T11:53:11.947Z,16.43
2023-03-29T11:55:18.869Z,16.36
2023-03-29T11:57:27.430Z,16.20
2023-03-29T11:59:35.701Z,16.24
2023-03-29T12:01:46.417Z,16.33
2023-03-29T12:03:53.423Z,16.52
2023-03-29T12:05:59.669Z,16.66
2023-03-29T12:08:08.300Z,16.61
2023-03-29T12:10:18.791Z,16.51
2023-03-29T12:12:27.730Z,16.62
2023-03-29T12:14:43.329Z,16.67
2023-03-29T12:17:07.566Z,16.34
2023-03-29T12:19:18.856Z,16.44
2023-03-29T12:21:23.864Z,16.63
2023-03-29T12:23:31.697Z,16.61
2023-03-29T12:25:42.284Z,16.49
2023-03-29T12:27:53.767Z,16.53
2023-03-29T12:30:19.522Z,16.56
2023-03-29T12:32:50.639Z,16.54
2023-03-29T12:35:38.336Z,16.44
2023-03-29T12:38:20.546Z,16.23
2023-03-29T12:40:46.330Z,16.35
2023-03-29T12:43:10.287Z,16.39
2023-03-29T12:45:34.119Z,16.42
2023-03-29T12:47:44.562Z,16.72
2023-03-29T12:49:47.991Z,16.91
2023-03-29T12:51:51.144Z,17.06
2023-03-29T12:53:56.367Z,17.13
2023-03-29T12:56:13.607Z,17.14
2023-03-29T12:58:28.065Z,17.16
2023-03-29T13:00:34.863Z,17.10
2023-03-29T13:02:39.196Z,16.95
2023-03-29T13:04:51.225Z,17.01
2023-03-29T13:07:04.048Z,17.04
2023-03-29T13:09:22.954Z,17.12
2023-03-29T13:11:52.602Z,17.29
2023-03-29T13:13:57.273Z,17.55
2023-03-29T13:16:12.799Z,17.77
2023-03-29T13:18:33.971Z,17.91
2023-03-29T13:20:46.948Z,17.95
2023-03-29T13:23:05.625Z,17.91
2023-03-29T13:25:25.364Z,17.86
2023-03-29T13:27:42.311Z,17.86
2023-03-29T13:30:00.623Z,17.88
2023-03-29T13:32:18.176Z,17.90
2023-03-29T13:34:35.902Z,17.93
2023-03-29T13:36:53.557Z,17.76
2023-03-29T13:38:56.895Z,17.50
2023-03-29T13:41:04.934Z,17.15
2023-03-29T13:43:12.416Z,16.95
2023-03-29T13:45:17.578Z,16.77
2023-03-29T13:47:39.279Z,16.68
2023-03-29T13:49:45.345Z,16.67
2023-03-29T13:52:06.562Z,16.66
2023-03-29T13:54:21.516Z,16.64
2023-03-29T13:56:27.196Z,16.62
2023-03-29T13:58:39.159Z,16.62
2023-03-29T14:00:49.275Z,16.60
2023-03-29T14:02:56.225Z,16.53
2023-03-29T14:05:04.168Z,16.48
2023-03-29T14:07:10.619Z,16.41
2023-03-29T14:09:15.327Z,16.55
2023-03-29T14:11:24.129Z,16.73
2023-03-29T14:13:27.107Z,16.87
2023-03-29T14:15:43.455Z,16.95
2023-03-29T14:17:46.704Z,16.99
2023-03-29T14:19:50.194Z,17.05
2023-03-29T14:21:54.130Z,16.97
2023-03-29T14:24:01.462Z,16.92
2023-03-29T14:26:09.126Z,16.81
2023-03-29T14:28:21.767Z,16.80
2023-03-29T14:30:28.379Z,16.78
2023-03-29T14:32:32.835Z,16.62
2023-03-29T14:34:35.646Z,16.59
2023-03-29T14:36:40.076Z,16.66
2023-03-29T14:38:49.510Z,16.60
2023-03-29T14:40:52.538Z,16.67
2023-03-29T14:42:56.247Z,16.71
2023-03-29T14:45:04.047Z,16.73
2023-03-29T14:47:07.100Z,16.71
2023-03-29T14:49:16.070Z,16.55
2023-03-29T14:51:20.081Z,16.55
2023-03-29T14:53:24.619Z,16.54
2023-03-29T14:55:27.384Z,16.42
2023-03-29T14:57:35.066Z,16.44
2023-03-29T14:59:39.920Z,16.45
2023-03-29T15:01:45.175Z,16.32
2023-03-29T15:03:54.839Z,16.48
2023-03-29T15:06:02.839Z,16.57
2023-03-29T15:08:08.746Z,16.68
2023-03-29T15:10:18.619Z,16.53
2023-03-29T15:12:22.104Z,16.57
2023-03-29T15:14:27.814Z,16.61
2023-03-29T15:16:31.443Z,16.53
2023-03-29T15:18:39.772Z,16.43
2023-03-29T15:20:44.804Z,16.40
2023-03-29T15:22:59.025Z,16.44
2023-03-29T15:25:02.017Z,16.50
2023-03-29T15:27:12.395Z,16.47
2023-03-29T15:29:23.667Z,16.53
2023-03-29T15:31:34.521Z,16.28
2023-03-29T15:33:39.369Z,16.29
2023-03-29T15:35:43.363Z,16.26
2023-03-29T15:37:46.176Z,16.27
2023-03-29T15:39:51.001Z,16.22
2023-03-29T15:41:54.452Z,16.22
2023-03-29T15:43:57.468Z,16.17
2023-03-29T15:46:00.266Z,16.14
2023-03-29T15:48:04.773Z,16.13
2023-03-29T15:50:07.805Z,16.11
2023-03-29T15:52:10.631Z,16.07
2023-03-29T15:54:13.678Z,16.17
2023-03-29T15:56:22.864Z,16.24
2023-03-29T15:58:28.746Z,16.21
2023-03-29T16:00:31.753Z,16.17
2023-03-29T16:02:35.241Z,16.23
2023-03-29T16:04:38.091Z,16.15
2023-03-29T16:06:41.082Z,16.21
2023-03-29T16:08:44.010Z,16.18
2023-03-29T16:10:47.018Z,16.22
2023-03-29T16:12:51.294Z,16.22
2023-03-29T16:14:54.071Z,16.11
2023-03-29T16:17:00.545Z,16.05
2023-03-29T16:19:03.405Z,16.08
2023-03-29T16:21:07.037Z,16.10
2023-03-29T16:23:11.400Z,16.19
2023-03-29T16:25:15.811Z,16.11
2023-03-29T16:27:18.839Z,16.15
2023-03-29T16:29:23.015Z,16.12
2023-03-29T16:31:26.929Z,16.18
2023-03-29T16:33:29.951Z,16.18
2023-03-29T16:35:35.443Z,16.20
2023-03-29T16:37:38.242Z,16.10
2023-03-29T16:39:40.996Z,16.11
2023-03-29T16:41:45.112Z,16.02
2023-03-29T16:43:47.923Z,15.94
2023-03-29T16:45:52.238Z,15.94
2023-03-29T16:47:56.043Z,15.91
2023-03-29T16:49:58.906Z,15.86
2023-03-29T16:52:01.692Z,15.83
2023-03-29T16:54:04.816Z,15.79
2023-03-29T16:56:08.786Z,15.75
2023-03-29T16:58:11.599Z,15.73
2023-03-29T17:00:19.657Z,15.67
2023-03-29T17:02:23.933Z,15.66
2023-03-29T17:04:26.813Z,15.61
2023-03-29T17:06:31.816Z,15.60
2023-03-29T17:08:34.829Z,15.59
2023-03-29T17:10:38.004Z,15.52
2023-03-29T17:12:40.947Z,15.49
2023-03-29T17:14:43.744Z,15.48
2023-03-29T17:16:46.728Z,15.43
2023-03-29T17:18:50.975Z,15.42
2023-03-29T17:20:57.111Z,15.39
2023-03-29T17:22:59.864Z,15.35
2023-03-29T17:25:03.762Z,15.33
2023-03-29T17:27:06.625Z,15.30
2023-03-29T17:29:09.432Z,15.28
2023-03-29T17:31:12.283Z,15.27
2023-03-29T17:33:15.294Z,15.24
2023-03-29T17:35:19.461Z,15.20
2023-03-29T17:37:22.718Z,15.16
2023-03-29T17:39:27.016Z,15.17
2023-03-29T17:41:31.037Z,15.13
2023-03-29T17:43:34.068Z,15.11
2023-03-29T17:45:36.928Z,15.09
2023-03-29T17:47:40.000Z,15.07
2023-03-29T17:49:43.794Z,15.04
2023-03-29T17:51:47.989Z,15.02
2023-03-29T17:53:52.337Z,14.97
2023-03-29T17:55:55.403Z,14.94
2023-03-29T17:57:58.292Z,14.94
2023-03-29T18:00:01.104Z,14.92
2023-03-29T18:02:05.334Z,14.93
2023-03-29T18:04:08.458Z,14.92
2023-03-29T18:06:11.505Z,14.87
2023-03-29T18:08:16.661Z,14.88
2023-03-29T18:10:19.834Z,14.87
2023-03-29T18:12:23.715Z,14.85
2023-03-29T18:14:26.516Z,14.82
2023-03-29T18:16:29.420Z,14.82
2023-03-29T18:18:32.786Z,14.79
2023-03-29T18:20:35.637Z,14.81
2023-03-29T18:22:38.744Z,14.83
2023-03-29T18:24:42.919Z,14.76
2023-03-29T18:26:45.816Z,14.75
2023-03-29T18:28:48.802Z,14.69
2023-03-29T18:30:51.687Z,14.65
2023-03-29T18:32:54.474Z,14.62
2023-03-29T18:34:57.330Z,14.63
2023-03-29T18:37:00.301Z,14.62
2023-03-29T18:39:05.614Z,14.60
2023-03-29T18:41:11.197Z,14.60
2023-03-29T18:43:14.148Z,14.62
2023-03-29T18:45:17.222Z,14.58
2023-03-29T18:47:20.070Z,14.55
2023-03-29T18:49:22.947Z,14.53
2023-03-29T18:51:28.005Z,14.51
2023-03-29T18:53:30.939Z,14.51
2023-03-29T18:55:33.746Z,14.48
2023-03-29T18:57:37.980Z,14.46
2023-03-29T18:59:40.757Z,14.47
2023-03-29T19:01:43.594Z,14.45
2023-03-29T19:03:46.852Z,14.40
2023-03-29T19:05:55.108Z,14.38
2023-03-29T19:07:58.242Z,14.36
2023-03-29T19:10:02.107Z,14.38
2023-03-29T19:12:05.595Z,14.35
2023-03-29T19:14:09.741Z,14.29
2023-03-29T19:16:12.644Z,14.29
2023-03-29T19:18:15.985Z,14.27
2023-03-29T19:20:18.997Z,14.21
2023-03-29T19:22:21.894Z,14.20
2023-03-29T19:24:24.716Z,14.17
2023-03-29T19:26:28.265Z,14.17
2023-03-29T19:28:31.393Z,14.21
2023-03-29T19:30:36.500Z,14.24
2023-03-29T19:32:39.460Z,14.28
2023-03-29T19:34:42.387Z,14.29
2023-03-29T19:36:45.441Z,14.23
2023-03-29T19:38:48.236Z,14.21
2023-03-29T19:40:52.431Z,14.20
2023-03-29T19:42:55.274Z,14.21
2023-03-29T19:44:58.140Z,14.22
2023-03-29T19:47:02.408Z,14.21
2023-03-29T19:49:05.797Z,14.19
2023-03-29T19:51:08.920Z,14.19
2023-03-29T19:53:12.451Z,14.21
2023-03-29T19:55:15.355Z,14.23
2023-03-29T19:57:19.213Z,14.26
2023-03-29T19:59:22.663Z,14.25
2023-03-29T20:01:27.174Z,14.26
2023-03-29T20:03:33.971Z,14.18
2023-03-29T20:05:39.719Z,14.14
2023-03-29T20:07:42.551Z,14.12
2023-03-29T20:09:45.905Z,14.15
2023-03-29T20:11:48.695Z,14.19
2023-03-29T20:13:51.532Z,14.25
2023-03-29T20:15:54.906Z,14.19
2023-03-29T20:17:59.701Z,14.23
2023-03-29T20:20:04.524Z,14.25
2023-03-29T20:22:08.651Z,14.25
2023-03-29T20:24:11.934Z,14.23
2023-03-29T20:26:15.365Z,14.23
2023-03-29T20:28:18.335Z,14.25
2023-03-29T20:30:21.497Z,14.26
2023-03-29T20:32:24.432Z,14.26
2023-03-29T20:34:27.292Z,14.26
2023-03-29T20:36:30.634Z,14.25
2023-03-29T20:38:35.218Z,14.20
2023-03-29T20:40:38.672Z,14.20
2023-03-29T20:42:41.502Z,14.19
2023-03-29T20:44:50.371Z,14.21
2023-03-29T20:47:03.684Z,14.16
2023-03-29T20:49:08.800Z,14.18
2023-03-29T20:51:11.993Z,14.14
2023-03-29T20:53:16.199Z,14.10
2023-03-29T20:55:22.216Z,14.11
2023-03-29T20:57:25.034Z,14.12
2023-03-29T20:59:28.508Z,14.11
2023-03-29T21:01:31.317Z,14.09
2023-03-29T21:03:34.243Z,14.08
2023-03-29T21:05:37.141Z,14.05
2023-03-29T21:07:40.191Z,14.03
2023-03-29T21:09:43.518Z,14.11
2023-03-29T21:11:47.726Z,14.07
2023-03-29T21:13:52.819Z,14.04
2023-03-29T21:15:55.829Z,14.03
2023-03-29T21:17:58.799Z,14.03
2023-03-29T21:20:07.404Z,14.05
2023-03-29T21:22:13.583Z,14.03
2023-03-29T21:24:16.434Z,14.05
2023-03-29T21:26:19.335Z,13.99
2023-03-29T21:28:23.515Z,14.00
2023-03-29T21:30:26.307Z,13.96
2023-03-29T21:32:29.067Z,13.96
2023-03-29T21:34:31.852Z,13.94
2023-03-29T21:36:34.693Z,13.93
2023-03-29T21:38:37.552Z,13.94
2023-03-29T21:40:40.367Z,13.92
2023-03-29T21:42:43.196Z,13.94
2023-03-29T21:44:47.364Z,13.94
2023-03-29T21:46:50.370Z,13.94
2023-03-29T21:48:53.278Z,13.92
2023-03-29T21:50:56.130Z,13.93
2023-03-29T21:52:58.901Z,13.89
2023-03-29T21:55:01.753Z,13.94
2023-03-29T21:57:04.798Z,13.89
2023-03-29T21:59:07.720Z,13.85
2023-03-29T22:01:11.900Z,13.89
2023-03-29T22:03:16.423Z,13.95
2023-03-29T22:05:19.360Z,13.90
2023-03-29T22:07:26.444Z,13.91
2023-03-29T22:09:29.282Z,13.92
2023-03-29T22:11:32.290Z,13.90
2023-03-29T22:13:35.231Z,13.87
2023-03-29T22:15:38.813Z,13.85
2023-03-29T22:17:43.208Z,13.88
2023-03-29T22:19:47.527Z,13.90
2023-03-29T22:21:51.256Z,13.98
2023-03-29T22:23:56.099Z,14.02
2023-03-29T22:25:58.989Z,14.02
2023-03-29T22:28:01.805Z,14.05
2023-03-29T22:30:06.539Z,14.14
2023-03-29T22:32:09.161Z,14.07
2023-03-29T22:34:13.494Z,14.10
2023-03-29T22:36:18.166Z,14.17
2023-03-29T22:38:21.311Z,14.09
2023-03-29T22:40:26.603Z,14.07
2023-03-29T22:42:29.396Z,14.13
2023-03-29T22:44:36.888Z,14.14
2023-03-29T22:46:39.680Z,14.16
2023-03-29T22:48:42.501Z,14.20
2023-03-29T22:50:48.232Z,14.29
2023-03-29T22:52:51.110Z,14.38
2023-03-29T22:54:53.900Z,14.37
2023-03-29T22:56:56.997Z,14.31
2023-03-29T22:58:59.836Z,14.23
2023-03-29T23:01:03.012Z,14.22
2023-03-29T23:03:06.559Z,14.31
2023-03-29T23:05:09.596Z,14.34
2023-03-29T23:07:13.765Z,14.39
2023-03-29T23:09:16.731Z,14.43
2023-03-29T23:11:22.100Z,14.37
2023-03-29T23:13:25.978Z,14.34
2023-03-29T23:15:29.707Z,14.29
2023-03-29T23:17:33.108Z,14.31
2023-03-29T23:19:35.918Z,14.25
2023-03-29T23:21:38.947Z,14.23
2023-03-29T23:23:43.421Z,14.20
2023-03-29T23:25:47.429Z,14.15
2023-03-29T23:27:50.151Z,14.19
2023-03-29T23:29:52.955Z,14.16
2023-03-29T23:31:56.701Z,14.20
2023-03-29T23:33:59.851Z,14.14
2023-03-29T23:36:04.210Z,14.14
2023-03-29T23:38:08.405Z,14.20
2023-03-29T23:40:15.495Z,14.09
2023-03-29T23:42:18.345Z,14.12
2023-03-29T23:44:21.114Z,14.00
2023-03-29T23:46:24.600Z,14.12
2023-03-29T23:48:28.075Z,13.99
2023-03-29T23:50:30.849Z,13.95
2023-03-29T23:52:33.905Z,13.91
2023-03-29T23:54:36.645Z,13.93
2023-03-29T23:56:40.889Z,13.93
2023-03-29T23:58:44.418Z,13.90
